TimeEDT,TemperatureF,Dew PointF,Humidity,Sea Level PressureIn,VisibilityMPH,Wind Direction,Wind SpeedMPH,Gust SpeedMPH,PrecipitationIn,Events,Conditions,WindDirDegrees,DateUTC
12:15 AM,26.6,19.4,74,29.82,10.0,Calm,Calm,-,N/A,,Clear,0,2013-03-27 04:15:00
12:35 AM,24.8,19.4,80,29.81,10.0,Calm,Calm,-,N/A,,Clear,0,2013-03-27 04:35:00
12:55 AM,24.8,19.4,80,29.82,10.0,Calm,Calm,-,N/A,,Clear,0,2013-03-27 04:55:00
1:35 AM,24.8,19.4,80,29.81,10.0,Calm,Calm,-,N/A,,Clear,0,2013-03-27 05:35:00
1:55 AM,24.8,19.4,80,29.81,10.0,Calm,Calm,-,N/A,,Clear,0,2013-03-27 05:55:00
2:15 AM,24.8,19.4,80,29.81,10.0,Calm,Calm,-,N/A,,Clear,0,2013-03-27 06:15:00
2:35 AM,24.8,19.4,80,29.81,10.0,Calm,Calm,-,N/A,,Clear,0,2013-03-27 06:35:00
2:55 AM,24.8,19.4,80,29.80,10.0,Calm,Calm,-,N/A,,Clear,0,2013-03-27 06:55:00
3:15 AM,23.0,19.4,86,29.80,10.0,Calm,Calm,-,N/A,,Clear,0,2013-03-27 07:15:00
3:55 AM,21.2,17.6,86,29.80,10.0,Calm,Calm,-,N/A,,Clear,0,2013-03-27 07:55:00
4:15 AM,23.0,19.4,86,29.80,10.0,Calm,Calm,-,N/A,,Clear,0,2013-03-27 08:15:00
4:35 AM,21.2,17.6,86,29.80,10.0,Calm,Calm,-,N/A,,Clear,0,2013-03-27 08:35:00
4:55 AM,21.2,17.6,86,29.80,10.0,Calm,Calm,-,N/A,,Clear,0,2013-03-27 08:55:00
5:15 AM,21.2,17.6,86,29.81,10.0,Calm,Calm,-,N/A,,Clear,0,2013-03-27 09:15:00
5:35 AM,21.2,17.6,86,29.81,10.0,Calm,Calm,-,N/A,,Clear,0,2013-03-27 09:35:00
6:15 AM,21.2,17.6,86,29.82,10.0,Calm,Calm,-,N/A,,Clear,0,2013-03-27 10:15:00
6:35 AM,21.2,17.6,86,29.82,10.0,Calm,Calm,-,N/A,,Partly Cloudy,0,2013-03-27 10:35:00
6:55 AM,21.2,17.6,86,29.82,10.0,Calm,Calm,-,N/A,,Mostly Cloudy,0,2013-03-27 10:55:00
7:15 AM,21.2,17.6,86,29.83,10.0,Calm,Calm,-,N/A,,Mostly Cloudy,0,2013-03-27 11:15:00
7:35 AM,23.0,19.4,86,29.83,10.0,Calm,Calm,-,N/A,,Scattered Clouds,0,2013-03-27 11:35:00
7:55 AM,24.8,19.4,80,29.83,10.0,Calm,Calm,-,N/A,,Partly Cloudy,0,2013-03-27 11:55:00
8:35 AM,26.6,21.2,80,29.83,10.0,Calm,Calm,-,N/A,,Overcast,0,2013-03-27 12:35:00
8:55 AM,30.2,21.2,69,29.83,10.0,Calm,Calm,-,N/A,,Overcast,0,2013-03-27 12:55:00
9:15 AM,32.0,23.0,69,29.83,10.0,Calm,Calm,-,N/A,,Mostly Cloudy,0,2013-03-27 13:15:00
9:35 AM,33.8,24.8,70,29.83,10.0,Calm,Calm,-,N/A,,Mostly Cloudy,0,2013-03-27 13:35:00
9:55 AM,37.4,24.8,60,29.82,10.0,South,3.5,-,N/A,,Scattered Clouds,180,2013-03-27 13:55:00
10:15 AM,39.2,23.0,52,29.82,10.0,Calm,Calm,-,N/A,,Clear,0,2013-03-27 14:15:00
10:35 AM,41.0,23.0,49,29.82,10.0,Calm,Calm,-,N/A,,Clear,0,2013-03-27 14:35:00
11:15 AM,44.6,24.8,46,29.81,10.0,NW,5.8,-,N/A,,Clear,320,2013-03-27 15:15:00
11:35 AM,46.4,24.8,43,29.81,10.0,NW,8.1,19.6,N/A,,Clear,320,2013-03-27 15:35:00
11:55 AM,46.4,23.0,40,29.80,10.0,NNW,9.2,18.4,N/A,,Clear,340,2013-03-27 15:55:00
12:15 PM,48.2,21.2,34,29.80,10.0,NNW,16.1,26.5,N/A,,Partly Cloudy,340,2013-03-27 16:15:00
12:35 PM,48.2,21.2,34,29.80,10.0,NNW,16.1,24.2,N/A,,Partly Cloudy,340,2013-03-27 16:35:00
12:55 PM,48.2,21.2,34,29.79,10.0,North,17.3,24.2,N/A,,Partly Cloudy,350,2013-03-27 16:55:00
1:15 PM,48.2,21.2,34,29.79,10.0,North,16.1,24.2,N/A,,Partly Cloudy,360,2013-03-27 17:15:00
1:36 PM,48.2,21.2,34,29.78,10.0,NW,11.5,19.6,N/A,,Mostly Cloudy,310,2013-03-27 17:36:00
1:55 PM,48.2,21.2,34,29.78,10.0,North,6.9,19.6,N/A,,Overcast,350,2013-03-27 17:55:00
2:35 PM,50.0,21.2,32,29.78,10.0,North,16.1,20.7,N/A,,Mostly Cloudy,350,2013-03-27 18:35:00
2:55 PM,50.0,21.2,32,29.78,10.0,North,16.1,26.5,N/A,,Overcast,350,2013-03-27 18:55:00
3:15 PM,48.2,19.4,32,29.79,10.0,North,16.1,20.7,N/A,,Overcast,360,2013-03-27 19:15:00
3:35 PM,48.2,19.4,32,29.79,10.0,NNW,19.6,24.2,N/A,,Overcast,330,2013-03-27 19:35:00
3:55 PM,48.2,19.4,32,29.79,10.0,NNW,16.1,19.6,N/A,,Mostly Cloudy,340,2013-03-27 19:55:00
4:15 PM,48.2,19.4,32,29.79,10.0,North,15.0,25.3,N/A,,Overcast,350,2013-03-27 20:15:00
4:36 PM,48.2,21.2,34,29.80,10.0,North,15.0,21.9,N/A,,Mostly Cloudy,350,2013-03-27 20:36:00
5:15 PM,46.4,23.0,40,29.81,10.0,NW,9.2,-,N/A,,Overcast,310,2013-03-27 21:15:00
5:35 PM,46.4,24.8,43,29.81,10.0,NW,8.1,-,N/A,,Scattered Clouds,310,2013-03-27 21:35:00
5:55 PM,46.4,24.8,43,29.81,10.0,WNW,8.1,-,N/A,,Partly Cloudy,290,2013-03-27 21:55:00
6:15 PM,46.4,24.8,43,29.83,10.0,WNW,8.1,-,N/A,,Partly Cloudy,290,2013-03-27 22:15:00
6:35 PM,44.6,24.8,46,29.83,10.0,WNW,6.9,-,N/A,,Mostly Cloudy,300,2013-03-27 22:35:00
6:55 PM,44.6,24.8,46,29.84,10.0,WNW,5.8,-,N/A,,Scattered Clouds,300,2013-03-27 22:55:00
7:15 PM,44.6,23.0,43,29.85,10.0,Calm,Calm,-,N/A,,Partly Cloudy,0,2013-03-27 23:15:00
7:55 PM,42.8,23.0,46,29.86,10.0,Calm,Calm,-,N/A,,Overcast,0,2013-03-27 23:55:00
8:15 PM,42.8,23.0,46,29.87,10.0,Calm,Calm,-,N/A,,Scattered Clouds,0,2013-03-28 00:15:00
8:35 PM,41.0,24.8,53,29.87,10.0,Calm,Calm,-,N/A,,Scattered Clouds,0,2013-03-28 00:35:00
9:36 PM,39.2,24.8,56,29.89,10.0,Calm,Calm,-,N/A,,Clear,0,2013-03-28 01:36:00
10:15 PM,41.0,26.6,57,29.90,10.0,North,6.9,-,N/A,,Partly Cloudy,10,2013-03-28 02:15:00
10:35 PM,41.0,26.6,57,29.90,10.0,NNE,11.5,16.1,N/A,,Mostly Cloudy,20,2013-03-28 02:35:00
10:55 PM,39.2,26.6,61,29.90,10.0,North,9.2,-,N/A,,Scattered Clouds,10,2013-03-28 02:55:00
11:15 PM,39.2,26.6,61,29.90,10.0,North,9.2,-,N/A,,Clear,350,2013-03-28 03:15:00
11:35 PM,39.2,28.4,65,29.90,10.0,North,8.1,-,N/A,,Clear,10,2013-03-28 03:35:00
11:55 PM,39.2,28.4,65,29.90,10.0,North,5.8,-,N/A,,Clear,10,2013-03-28 03:55:00